Terminal Aerodrome Forecast
Issued by NWS Sterling, VA

Current Version | Previous Version | Text Only | Print | Product List | Glossary On
Versions: 1 2 3 4 5 6 7 8 9 10 11 12 13 14 15 16 17 18 19 20 21 22
000
FTUS41 KLWX 011100
TAFIAD
TAF
KIAD 011139Z 0112/0218 17004KT P6SM OVC050
     FM012000 14006KT 6SM -RASNPL OVC040
     FM020100 13006KT 5SM -RA OVC025
     FM020400 16007KT 2SM RA BR BKN007 OVC015
     FM020900 20007KT 4SM -RA BR OVC005=

USA.gov is the U.S. government's official web portal to all federal, state and local government web resources and services.